Nearby METAR Reports

EGNX - East Midlands, United Kingdom
Distance: S 18mi, 28km
Updated: 20/07/2018 15:20
Clear
Clear
 Wind from WNW
Wind: WNW 12 mph , 19 km/h
Temperature: 23°C
Dew Point: 10°C
Humidity: 44%
Barometer: 1013 hPa
Summary: Clear
Visibility: greater than 7 miles , 10 km
2018/07/20 14:20 EGNX 201420Z 29010KT CAVOK 23/10 Q1013
EGCN - Doncaster Sheffi, United Kingdom
Distance: NNE 31mi, 50km
Updated: 20/07/2018 15:20
Clear
Clear
 Wind from WNW
Wind: WNW 10 mph , 17 km/h
Temperature: 25°C
Dew Point: 9°C
Humidity: 36%
Barometer: 1013 hPa
Summary: Clear
Visibility: greater than 7 miles , 10 km
2018/07/20 14:20 EGCN 201420Z 29009KT 250V320 CAVOK 25/09 Q1013
EGYE - Barkston Heath R, United Kingdom
Distance: ESE 31mi, 50km
Updated: 20/07/2018 14:50
Clear
Clear
 Wind from WSW
Wind: WSW 5 mph , 7 km/h
Barometer: 1013 hPa
Summary: Clear
Visibility: greater than 7 miles , 10 km
2018/07/20 13:50 EGYE 201350Z 24004KT CAVOK ///// Q1013 BLU
 
EGXW - Waddington Raf, United Kingdom
Distance: ENE 33mi, 53km
Updated: 20/07/2018 14:50
Clear
Clear
 Wind from SW
Wind: SW 12 mph , 19 km/h
Temperature: 27°C
Dew Point: 10°C
Humidity: 34%
Barometer: 1012 hPa
Summary: Clear
Visibility: greater than 7 miles , 10 km
2018/07/20 13:50 EGXW 201350Z 23010KT CAVOK 27/10 Q1012 BLU NOSIG
EGYD - Cranwell Raf, United Kingdom
Distance: E 33mi, 53km
Updated: 20/07/2018 14:50
Clear
Clear
 Wind from S
Wind: S 7 mph , 11 km/h
Temperature: 26°C
Dew Point: 11°C
Humidity: 39%
Barometer: 1012 hPa
Summary: Clear
Visibility: greater than 7 miles , 10 km
2018/07/20 13:50 EGYD 201350Z 19006KT CAVOK 26/11 Q1012 BLU
EGXP - Scampton Raf, United Kingdom
Distance: ENE 35mi, 56km
Updated: 20/07/2018 14:50
Mostly cloudy
Mostly cloudy
 Wind from SSW
Wind: SSW 9 mph , 15 km/h
Temperature: 25°C
Dew Point: 10°C
Humidity: 39%
Barometer: 1012 hPa
Clouds: Mostly cloudy
Visibility: 6 miles , 10 km
Cloud details: Mostly cloudy 1829 m
2018/07/20 13:50 EGXP 201350Z AUTO 21008KT 9999 // BKN060/// 25/10 Q1012
 
EGCC - Manchester Intl, United Kingdom
Distance: WNW 45mi, 72km
Updated: 20/07/2018 15:20
Clear
Clear
 Wind from W
Wind: W 7 mph , 11 km/h
Temperature: 18°C
Dew Point: 11°C
Humidity: 64%
Barometer: 1014 hPa
Clouds: Clear
Visibility: 6 miles , 10 km
2018/07/20 14:20 EGCC 201420Z AUTO 28006KT 220V310 9999 NCD 18/11 Q1014 NOSIG
EGBB - Birmingham Airpo, United Kingdom
Distance: SSW 46mi, 74km
Updated: 20/07/2018 15:20
Few Clouds
Few Clouds
 Wind from NW
Wind: NW 8 mph , 13 km/h
Temperature: 24°C
Dew Point: 10°C
Humidity: 41%
Barometer: 1013 hPa
Clouds: Few Clouds
Visibility: 6 miles , 10 km
Cloud details: Few Clouds 1463 m
2018/07/20 14:20 EGBB 201420Z 32007KT 280V350 9999 FEW048 24/10 Q1013
EGXC - Coningsby Raf, United Kingdom
Distance: E 47mi, 75km
Updated: 20/07/2018 14:50
Clear
Clear
 Wind from SW
Wind: SW 5 mph , 7 km/h
Temperature: 26°C
Dew Point: 10°C
Humidity: 37%
Barometer: 1012 hPa
Summary: Clear
Visibility: greater than 7 miles , 10 km
2018/07/20 13:50 EGXC 201350Z 23004KT CAVOK 26/10 Q1012 BLU NOSIG
 
EGXT - Wittering Raf, United Kingdom
Distance: SE 47mi, 75km
Updated: 20/07/2018 14:50
Mostly cloudy
Mostly cloudy
 Wind from S
Wind: S 7 mph , 11 km/h
Temperature: 27°C
Dew Point: 10°C
Humidity: 34%
Barometer: 1012 hPa
Clouds: Mostly cloudy
Visibility: 6 miles , 10 km
Cloud details: Mostly cloudy 1829 m
2018/07/20 13:50 EGXT 201350Z AUTO 19006KT 9999 BKN060/// 27/10 Q1012
EGNJ - Humberside, United Kingdom
Distance: NE 52mi, 83km
Updated: 20/07/2018 15:20
Clear
Clear
 Wind from SSW
Wind: SSW 8 mph , 13 km/h
Temperature: 26°C
Dew Point: 10°C
Humidity: 37%
Barometer: 1012 hPa
Summary: Clear
Visibility: greater than 7 miles , 10 km
2018/07/20 14:20 EGNJ 201420Z 20007KT 150V230 CAVOK 26/10 Q1012
EGWC - Cosford Raf, United Kingdom
Distance: SW 52mi, 83km
Updated: 20/07/2018 14:50
Light drizzle, Partly cloudy
Light drizzle, Partly cloudy
 Wind from NNW
Wind: NNW 12 mph , 19 km/h
Temperature: 20°C
Dew Point: 13°C
Humidity: 64%
Barometer: 1014 hPa
Summary: Light Drizzle
Clouds: Partly cloudy
Visibility: 6 miles , 10 km
Cloud details: Few Clouds 457 m
Partly cloudy 1524 m
2018/07/20 13:50 EGWC 201350Z 33010KT 9999 -DZ FEW015 SCT050 20/13 Q1014 BLU
 
EGNM - Leeds And Bradfo, United Kingdom
Distance: NNW 57mi, 91km
Updated: 20/07/2018 15:20
Partly cloudy
Partly cloudy
 Wind from W
Wind: W 12 mph , 19 km/h
Temperature: 16°C
Dew Point: 14°C
Humidity: 88%
Barometer: 1014 hPa
Clouds: Partly cloudy
Visibility: 6 miles , 10 km
Cloud details: Partly cloudy 1219 m
2018/07/20 14:20 EGNM 201420Z 27010KT 9999 SCT040 16/14 Q1014
EGOS - Shawbury Raf, United Kingdom
Distance: WSW 60mi, 97km
Updated: 20/07/2018 14:50
Light rain, Overcast
Light rain, Overcast
 Wind from WNW
Wind: WNW 13 mph , 20 km/h
Temperature: 18°C
Dew Point: 12°C
Humidity: 68%
Barometer: 1014 hPa
Summary: Light rain
Clouds: Overcast
Visibility: 6 miles , 10 km
Cloud details: Overcast 2438 m
2018/07/20 13:50 EGOS 201350Z 29011KT 9999 -RA OVC080 18/12 Q1014 BLU NOSIG
EGYH - Holbeach (aut), United Kingdom
Distance: ESE 62mi, 99km
Updated: 19/07/2018 22:50
NOT Current
Clear
Clear
 Wind from S
Wind: S 12 mph , 19 km/h
Temperature: 18°C
Dew Point: 8°C
Humidity: 52%
Barometer: 1016 hPa
Summary: Clear
Visibility: greater than 7 miles , 10 km
2018/07/19 21:50 EGYH 192150Z 17010KT CAVOK 18/08 Q1016 BLU
 
EGXV - Leconfield (aut), United Kingdom
Distance: NNE 65mi, 105km
Updated: 20/07/2018 14:50
Mostly cloudy
Mostly cloudy
 Wind from WNW
Wind: WNW 6 mph , 9 km/h
Temperature: 25°C
Dew Point: 11°C
Humidity: 42%
Barometer: 1012 hPa
Clouds: Mostly cloudy
Visibility: 6 miles , 10 km
Cloud details: Mostly cloudy 1829 m
2018/07/20 13:50 EGXV 201350Z AUTO 29005KT 9999 BKN060/// 25/11 Q1012
EGXS - Donna Nook Raf, United Kingdom
Distance: ENE 66mi, 106km
Updated: 20/07/2018 14:50
Partly cloudy
Partly cloudy
 Wind from E
Wind: E 12 mph , 19 km/h
Temperature: 20°C
Dew Point: 15°C
Humidity: 73%
Barometer: 1013 hPa
Clouds: Partly cloudy
Visibility: 6 miles , 10 km
Cloud details: Partly cloudy 2743 m
2018/07/20 13:50 EGXS 201350Z AUTO 09010KT 9999 // SCT090/// 20/15 Q1013
EGGP - Liverpool Airpor, United Kingdom
Distance: WNW 67mi, 107km
Updated: 20/07/2018 15:20
Light rain, Showers, Mostly cloudy
Light rain, Showers, Mostly cloudy
 Wind from W
Wind: W 12 mph , 19 km/h
Temperature: 17°C
Dew Point: 14°C
Humidity: 83%
Barometer: 1014 hPa
Summary: Light rain, Showers
Clouds: Mostly cloudy
Visibility: 4 miles , 7 km
Cloud details: Partly cloudy 305 m
Mostly cloudy 610 m
2018/07/20 14:20 EGGP 201420Z 28010KT 7000 -SHRA SCT010 BKN020 17/14 Q1014
 
EGXU - Linton-On-Ouse R, United Kingdom
Distance: N 68mi, 109km
Updated: 20/07/2018 14:50
Clear
Clear
 Wind from WNW
Wind: WNW 15 mph , 24 km/h
Temperature: 18°C
Dew Point: 12°C
Humidity: 68%
Barometer: 1013 hPa
Summary: Clear
Visibility: greater than 7 miles , 10 km
2018/07/20 13:50 EGXU 201350Z 30013KT CAVOK 18/12 Q1013 BLU TEMPO 7000 RA WHT
EGNR - Hawarden (aut), United Kingdom
Distance: W 70mi, 112km
Updated: 20/07/2018 15:20
Light rain, Mostly cloudy
Light rain, Mostly cloudy
 Wind from S
Wind: S 6 mph , 9 km/h
Temperature: 16°C
Dew Point: 12°C
Humidity: 77%
Barometer: 1015 hPa
Summary: Light rain
Clouds: Mostly cloudy
Visibility: 6 miles , 10 km
Cloud details: Partly cloudy 335 m
Partly cloudy 1036 m
Mostly cloudy 1433 m
2018/07/20 14:20 EGNR 201420Z 18005KT 150V220 9999 -RA SCT011 SCT034 BKN047 16/12 Q1015